Harristown, Pennsylvania
Current Conditions -  °F | °C
As of 6:55 AM on Friday 19 Dec 2014 (Local Time) from KMQS Reporting Station
Overcast Overcast  
Wind Chill: 25°   Ceiling: 3100
Heat Index: 34°   Visibility: 10mi
Dew Point: 27°   Wind: 12mph
Humidity: 75%   Direction: 300°WNW
Pressure: 30.05"   Gusts: 17mph
Location:  39.9757°N, 76.0913°W
Report Text: KMQS 191155Z AUTO 30010G15KT 10SM OVC031 01/M03 A3005 RMK AO2
Loading
Personal Weather Stations






























Interactive Weather Map New forecast layout! Learn more

10-Day Weather Forecast

Advertisements
Track Severe Weather on mobile